Terminal Aerodrome Forecast
Issued by NWS Charleston, WV

Current Version | Previous Version | Graphics & Text | Print | Product List | Glossary On
Versions: 1 2 3 4 5 6 7 8 9 10 11 12 13 14 15 16 17 18 19 20 21 22 23 24 25 26
272
FTUS41 KRLX 060855 AAA
TAFHTS
TAF AMD
KHTS 060855Z 0609/0706 07007KT P6SM -RA OVC100
     FM061100 09005KT P6SM -RA OVC035
     FM061500 12006KT 4SM -RA OVC015
     FM061700 14006KT 2SM -RA OVC015
     FM062100 20005KT 3SM -RA OVC010
     FM062300 25006KT P6SM OVC010=

USA.gov is the U.S. government's official web portal to all federal, state and local government web resources and services.